createdAt,value
2022-08-22T00:02:30.895Z,53.25
2022-08-22T00:02:42.244Z,36.65
2022-08-22T00:02:53.535Z,38.51
2022-08-22T00:02:59.616Z,43.72
2022-08-22T00:03:02.492Z,46.03
2022-08-22T00:05:10.718Z,53.81
2022-08-22T00:08:08.388Z,53.66
2022-08-22T00:10:52.577Z,53.40
2022-08-22T00:13:29.149Z,53.40
2022-08-22T00:16:26.130Z,54.15
2022-08-22T00:19:17.583Z,57.54
2022-08-22T00:22:11.971Z,55.33
2022-08-22T00:24:49.073Z,54.83
2022-08-22T00:27:21.266Z,54.12
2022-08-22T00:29:54.257Z,54.13
2022-08-22T00:32:33.723Z,54.13
2022-08-22T00:35:03.030Z,54.56
2022-08-22T00:37:41.314Z,54.83
2022-08-22T00:40:49.624Z,57.17
2022-08-22T00:43:47.157Z,56.39
2022-08-22T00:46:47.121Z,57.46
2022-08-22T00:49:44.476Z,57.28
2022-08-22T00:52:40.976Z,55.61
2022-08-22T00:55:25.925Z,56.81
2022-08-22T00:58:33.878Z,56.17
2022-08-22T01:01:06.822Z,58.67
2022-08-22T01:03:39.129Z,56.59
2022-08-22T01:06:58.660Z,57.07
2022-08-22T01:09:48.408Z,56.63
2022-08-22T01:12:35.138Z,56.13
2022-08-22T01:15:08.598Z,56.69
2022-08-22T01:18:23.317Z,56.45
2022-08-22T01:21:08.520Z,55.85
2022-08-22T01:24:12.559Z,56.53
2022-08-22T01:27:10.643Z,57.71
2022-08-22T01:30:16.340Z,56.87
2022-08-22T01:33:11.924Z,56.60
2022-08-22T01:36:04.845Z,56.90
2022-08-22T01:39:01.295Z,56.40
2022-08-22T01:41:39.701Z,56.92
2022-08-22T01:44:27.960Z,56.62
2022-08-22T01:47:03.994Z,56.33
2022-08-22T01:49:33.302Z,56.21
2022-08-22T01:52:05.434Z,56.25
2022-08-22T01:54:40.900Z,56.28
2022-08-22T01:57:09.171Z,56.56
2022-08-22T01:59:42.321Z,56.46
2022-08-22T02:02:43.639Z,57.03
2022-08-22T02:05:24.049Z,58.07
2022-08-22T02:08:03.234Z,58.34
2022-08-22T02:10:48.348Z,57.51
2022-08-22T02:13:14.743Z,58.42
2022-08-22T02:15:41.188Z,58.16
2022-08-22T02:18:18.388Z,57.80
2022-08-22T02:20:47.552Z,57.84
2022-08-22T02:23:44.056Z,57.69
2022-08-22T02:26:17.706Z,57.79
2022-08-22T02:28:58.909Z,57.94
2022-08-22T02:31:34.085Z,57.74
2022-08-22T02:34:15.251Z,57.64
2022-08-22T02:36:51.699Z,58.69
2022-08-22T02:39:33.006Z,62.21
2022-08-22T02:42:05.366Z,63.06
2022-08-22T02:44:36.613Z,62.10
2022-08-22T02:47:09.798Z,60.62
2022-08-22T02:49:43.790Z,59.97
2022-08-22T02:52:35.232Z,59.66
2022-08-22T02:55:16.255Z,59.70
2022-08-22T02:57:57.612Z,59.68
2022-08-22T03:00:44.773Z,59.44
2022-08-22T03:03:20.243Z,59.24
2022-08-22T03:05:52.296Z,59.07
2022-08-22T03:08:23.609Z,59.06
2022-08-22T03:11:18.244Z,59.14
2022-08-22T03:13:44.766Z,58.84
2022-08-22T03:16:21.948Z,59.38
2022-08-22T03:18:57.770Z,59.76
2022-08-22T03:21:30.342Z,60.15
2022-08-22T03:24:14.591Z,60.40
2022-08-22T03:26:59.775Z,59.42
2022-08-22T03:29:37.711Z,59.05
2022-08-22T03:32:14.943Z,59.42
2022-08-22T03:34:54.959Z,59.40
2022-08-22T03:37:31.803Z,59.54
2022-08-22T03:40:06.200Z,59.43
2022-08-22T03:42:38.694Z,59.24
2022-08-22T03:45:40.555Z,59.28
2022-08-22T03:48:09.735Z,59.37
2022-08-22T03:50:59.847Z,59.21
2022-08-22T03:53:38.163Z,59.17
2022-08-22T03:56:27.019Z,59.23
2022-08-22T03:59:42.782Z,58.99
2022-08-22T04:02:41.745Z,60.80
2022-08-22T04:05:17.725Z,60.75
2022-08-22T04:08:19.155Z,60.44
2022-08-22T04:11:07.610Z,59.97
2022-08-22T04:13:55.966Z,59.72
2022-08-22T04:17:05.550Z,59.61
2022-08-22T04:19:54.046Z,59.38
2022-08-22T04:22:33.435Z,59.54
2022-08-22T04:25:25.494Z,59.78
2022-08-22T04:28:01.540Z,59.59
2022-08-22T04:30:39.900Z,59.50
2022-08-22T04:33:29.406Z,59.53
2022-08-22T04:36:08.606Z,59.67
2022-08-22T04:38:50.387Z,59.89
2022-08-22T04:41:20.266Z,59.63
2022-08-22T04:44:01.817Z,59.69
2022-08-22T04:47:00.065Z,59.79
2022-08-22T04:49:39.464Z,59.56
2022-08-22T04:52:11.869Z,59.46
2022-08-22T04:55:08.256Z,59.57
2022-08-22T04:57:53.465Z,59.37
2022-08-22T05:00:20.375Z,59.60
2022-08-22T05:02:56.363Z,59.27
2022-08-22T05:05:35.404Z,59.73
2022-08-22T05:08:06.309Z,59.88
2022-08-22T05:10:38.824Z,59.51
2022-08-22T05:13:19.458Z,59.92
2022-08-22T05:15:50.947Z,59.91
2022-08-22T05:18:23.503Z,59.71
2022-08-22T05:20:53.924Z,60.56
2022-08-22T05:23:43.003Z,60.11
2022-08-22T05:26:13.067Z,60.16
2022-08-22T05:28:51.317Z,60.25
2022-08-22T05:31:28.816Z,60.83
2022-08-22T05:34:03.714Z,60.28
2022-08-22T05:36:41.584Z,60.91
2022-08-22T05:39:19.083Z,61.12
2022-08-22T05:41:46.404Z,61.03
2022-08-22T05:44:31.637Z,61.31
2022-08-22T05:47:36.583Z,61.26
2022-08-22T05:50:33.821Z,61.12
2022-08-22T05:53:12.461Z,60.61
2022-08-22T05:56:03.336Z,59.33
2022-08-22T05:58:38.736Z,58.54
2022-08-22T06:01:31.346Z,58.61
2022-08-22T06:04:22.667Z,57.40
2022-08-22T06:06:56.242Z,57.67
2022-08-22T06:09:48.508Z,57.59
2022-08-22T06:12:22.218Z,56.75
2022-08-22T06:14:57.813Z,56.36
2022-08-22T06:17:34.246Z,55.90
2022-08-22T06:20:01.874Z,55.20
2022-08-22T06:22:31.799Z,54.93
2022-08-22T06:25:08.466Z,54.59
2022-08-22T06:27:36.194Z,54.36
2022-08-22T06:30:04.514Z,54.30
2022-08-22T06:32:59.814Z,53.94
2022-08-22T06:35:30.039Z,51.53
2022-08-22T06:38:01.325Z,50.79
2022-08-22T06:40:29.373Z,50.54
2022-08-22T06:42:57.778Z,49.33
2022-08-22T06:45:32.700Z,51.10
2022-08-22T06:48:16.700Z,50.25
2022-08-22T06:50:45.704Z,50.39
2022-08-22T06:53:12.089Z,47.84
2022-08-22T06:55:42.162Z,49.21
2022-08-22T06:58:22.939Z,49.35
2022-08-22T07:01:11.455Z,47.38
2022-08-22T07:03:46.639Z,48.65
2022-08-22T07:06:28.255Z,47.14
2022-08-22T07:08:55.853Z,45.60
2022-08-22T07:11:27.959Z,45.02
2022-08-22T07:13:59.572Z,43.83
2022-08-22T07:16:39.388Z,44.20
2022-08-22T07:19:06.972Z,43.72
2022-08-22T07:21:46.123Z,45.31
2022-08-22T07:24:19.799Z,46.99
2022-08-22T07:26:49.188Z,45.61
2022-08-22T07:29:30.745Z,43.04
2022-08-22T07:31:59.054Z,43.12
2022-08-22T07:34:40.926Z,42.94
2022-08-22T07:37:14.515Z,44.75
2022-08-22T07:39:50.266Z,42.59
2022-08-22T07:42:31.729Z,40.88
2022-08-22T07:45:28.524Z,41.63
2022-08-22T07:47:54.961Z,40.93
2022-08-22T07:50:27.271Z,42.16
2022-08-22T07:53:01.369Z,39.57
2022-08-22T07:55:28.609Z,37.21
2022-08-22T07:58:04.085Z,38.99
2022-08-22T08:00:32.523Z,36.16
2022-08-22T08:03:04.589Z,37.40
2022-08-22T08:05:34.385Z,34.45
2022-08-22T08:08:07.260Z,34.38
2022-08-22T08:10:39.364Z,37.36
2022-08-22T08:13:12.929Z,35.44
2022-08-22T08:15:43.002Z,34.76
2022-08-22T08:18:19.186Z,37.52
2022-08-22T08:20:50.822Z,35.46
2022-08-22T08:23:23.381Z,34.27
2022-08-22T08:25:59.876Z,35.92
2022-08-22T08:28:35.326Z,34.55
2022-08-22T08:31:27.441Z,35.39
2022-08-22T08:34:03.240Z,37.80
2022-08-22T08:36:45.194Z,35.45
2022-08-22T08:39:28.610Z,37.26
2022-08-22T08:42:14.210Z,35.44
2022-08-22T08:44:59.426Z,36.25
2022-08-22T08:47:50.691Z,36.91
2022-08-22T08:50:35.980Z,35.51
2022-08-22T08:53:14.928Z,36.37
2022-08-22T08:55:56.327Z,35.29
2022-08-22T08:58:32.779Z,34.36
2022-08-22T09:01:19.534Z,35.23
2022-08-22T09:03:52.100Z,35.45
2022-08-22T09:06:52.749Z,34.39
2022-08-22T09:09:27.474Z,34.50
2022-08-22T09:12:33.694Z,34.24
2022-08-22T09:15:25.983Z,34.54
2022-08-22T09:18:43.597Z,32.02
2022-08-22T09:21:12.766Z,32.25
2022-08-22T09:24:07.243Z,32.44
2022-08-22T09:26:48.511Z,32.16
2022-08-22T09:32:29.807Z,30.37
2022-08-22T09:35:16.043Z,29.56
2022-08-22T09:37:54.016Z,30.32
2022-08-22T09:40:37.389Z,29.68
2022-08-22T09:43:11.074Z,29.62
2022-08-22T09:46:10.843Z,29.89
2022-08-22T09:48:43.542Z,31.74
2022-08-22T09:51:31.832Z,31.07
2022-08-22T09:54:18.676Z,31.84
2022-08-22T09:57:05.680Z,30.61
2022-08-22T09:59:53.123Z,30.81
2022-08-22T10:02:30.225Z,29.94
2022-08-22T10:05:00.499Z,29.17
2022-08-22T10:08:06.073Z,28.79
2022-08-22T10:11:02.933Z,29.60
2022-08-22T10:13:57.821Z,29.07
2022-08-22T10:16:59.479Z,30.10
2022-08-22T10:19:52.860Z,30.01
2022-08-22T10:23:01.339Z,29.35
2022-08-22T10:25:43.141Z,29.82
2022-08-22T10:28:28.457Z,28.51
2022-08-22T10:31:20.599Z,29.23
2022-08-22T10:33:58.040Z,30.23
2022-08-22T10:36:45.081Z,29.33
2022-08-22T10:39:22.542Z,30.06
2022-08-22T10:42:16.792Z,29.58
2022-08-22T10:45:23.944Z,30.06
2022-08-22T10:48:08.788Z,29.63
2022-08-22T10:50:50.243Z,29.24
2022-08-22T10:53:35.291Z,28.77
2022-08-22T10:56:11.524Z,29.38
2022-08-22T10:58:45.220Z,29.75
2022-08-22T11:01:37.105Z,28.76
2022-08-22T11:04:28.014Z,29.34
2022-08-22T11:07:18.039Z,28.80
2022-08-22T11:09:58.209Z,29.06
2022-08-22T11:12:35.456Z,29.85
2022-08-22T11:15:28.363Z,29.70
2022-08-22T11:18:07.198Z,29.17
2022-08-22T11:20:57.934Z,28.85
2022-08-22T11:23:55.515Z,28.85
2022-08-22T11:26:47.062Z,29.57
2022-08-22T11:29:35.962Z,29.03
2022-08-22T11:32:23.739Z,28.61
2022-08-22T11:35:24.047Z,29.30
2022-08-22T11:38:03.512Z,29.56
2022-08-22T11:40:39.157Z,29.01
2022-08-22T11:43:17.955Z,28.68
2022-08-22T11:45:50.902Z,29.05
2022-08-22T11:48:49.684Z,28.79
2022-08-22T11:52:13.250Z,27.00
2022-08-22T11:54:54.457Z,29.86
2022-08-22T11:57:32.739Z,28.29
2022-08-22T12:00:12.871Z,27.79
2022-08-22T12:03:17.404Z,27.47
2022-08-22T12:06:09.583Z,29.28
2022-08-22T12:08:36.022Z,28.99
2022-08-22T12:11:35.381Z,27.24
2022-08-22T12:15:00.545Z,27.39
2022-08-22T12:18:01.484Z,26.95
2022-08-22T12:20:46.415Z,26.73
2022-08-22T12:23:49.741Z,27.31
2022-08-22T12:26:26.760Z,26.89
2022-08-22T12:29:33.477Z,25.76
2022-08-22T12:32:27.445Z,25.42
2022-08-22T12:35:13.770Z,25.39
2022-08-22T12:37:53.346Z,25.22
2022-08-22T12:40:47.572Z,27.14
2022-08-22T12:43:34.169Z,25.60
2022-08-22T12:46:36.546Z,26.69
2022-08-22T12:49:31.574Z,26.18
2022-08-22T12:52:37.227Z,25.82
2022-08-22T12:55:12.000Z,25.01
2022-08-22T12:57:45.896Z,25.27
2022-08-22T13:00:32.021Z,25.31
2022-08-22T13:03:08.260Z,27.06
2022-08-22T13:05:41.072Z,25.60
2022-08-22T13:08:22.160Z,27.46
2022-08-22T13:11:23.107Z,26.65
2022-08-22T13:13:57.806Z,25.77
2022-08-22T13:16:34.486Z,27.09
2022-08-22T13:19:29.654Z,25.83
2022-08-22T13:22:02.214Z,27.31
2022-08-22T13:24:52.811Z,27.88
2022-08-22T13:27:53.038Z,26.02
2022-08-22T13:30:37.640Z,26.34
2022-08-22T13:33:16.276Z,27.92
2022-08-22T13:35:55.574Z,27.41
2022-08-22T13:38:27.317Z,26.31
2022-08-22T13:40:59.003Z,26.07
2022-08-22T13:43:30.168Z,27.65
2022-08-22T13:46:01.992Z,28.21
2022-08-22T13:48:46.986Z,27.16
2022-08-22T13:51:28.530Z,26.61
2022-08-22T13:54:11.218Z,25.53
2022-08-22T13:56:52.104Z,26.19
2022-08-22T13:59:51.098Z,25.34
2022-08-22T14:02:34.350Z,25.65
2022-08-22T14:05:08.412Z,25.46
2022-08-22T14:07:58.297Z,25.07
2022-08-22T14:10:32.027Z,26.53
2022-08-22T14:13:00.038Z,26.91
2022-08-22T14:15:32.326Z,25.50
2022-08-22T14:18:15.336Z,25.16
2022-08-22T14:20:47.648Z,26.18
2022-08-22T14:23:27.181Z,24.94
2022-08-22T14:25:54.583Z,26.29
2022-08-22T14:28:28.701Z,25.76
2022-08-22T14:31:14.257Z,25.63
2022-08-22T14:33:50.602Z,23.97
2022-08-22T14:36:25.459Z,25.11
2022-08-22T14:38:58.033Z,24.34
2022-08-22T14:41:52.914Z,25.24
2022-08-22T14:44:27.658Z,23.83
2022-08-22T14:46:59.125Z,22.85
2022-08-22T14:49:31.572Z,23.46
2022-08-22T14:52:19.613Z,24.59
2022-08-22T14:54:46.746Z,24.58
2022-08-22T14:57:18.519Z,24.19
2022-08-22T14:59:50.141Z,25.35
2022-08-22T15:02:33.059Z,25.38
2022-08-22T15:05:11.958Z,24.95
2022-08-22T15:07:39.104Z,24.87
2022-08-22T15:10:17.518Z,25.25
2022-08-22T15:12:51.417Z,24.99
2022-08-22T15:15:32.640Z,24.76
2022-08-22T15:18:28.083Z,26.00
2022-08-22T15:21:11.296Z,26.20
2022-08-22T15:23:45.142Z,24.64
2022-08-22T15:26:22.547Z,23.94
2022-08-22T15:28:57.982Z,24.06
2022-08-22T15:31:24.936Z,24.79
2022-08-22T15:33:52.143Z,24.96
2022-08-22T15:36:26.767Z,26.10
2022-08-22T15:39:30.835Z,25.66
2022-08-22T15:41:58.951Z,24.62
2022-08-22T15:44:33.387Z,26.37
2022-08-22T15:47:28.498Z,24.77
2022-08-22T15:50:02.541Z,25.32
2022-08-22T15:52:35.651Z,25.87
2022-08-22T15:55:19.719Z,26.15
2022-08-22T15:57:59.996Z,25.89
2022-08-22T16:01:04.701Z,26.17
2022-08-22T16:04:02.876Z,27.58
2022-08-22T16:06:53.818Z,26.63
2022-08-22T16:09:32.346Z,26.39
2022-08-22T16:12:04.093Z,25.85
2022-08-22T16:14:33.634Z,27.48
2022-08-22T16:17:25.959Z,26.38
2022-08-22T16:20:07.767Z,25.73
2022-08-22T16:23:08.917Z,26.69
2022-08-22T16:25:50.245Z,26.28
2022-08-22T16:28:54.306Z,26.21
2022-08-22T16:31:17.186Z,25.58
2022-08-22T16:33:44.457Z,25.89
2022-08-22T16:36:17.886Z,25.56
2022-08-22T16:38:49.099Z,26.31
2022-08-22T16:41:29.914Z,25.81
2022-08-22T16:44:37.915Z,25.29
2022-08-22T16:47:36.967Z,25.49
2022-08-22T16:50:30.226Z,25.85
2022-08-22T16:53:18.614Z,25.60
2022-08-22T16:55:49.055Z,26.51
2022-08-22T16:59:03.282Z,27.10
2022-08-22T17:01:40.486Z,27.58
2022-08-22T17:04:10.134Z,27.04
2022-08-22T17:07:17.871Z,27.50
2022-08-22T17:10:12.417Z,27.78
2022-08-22T17:13:03.512Z,27.26
2022-08-22T17:15:50.551Z,27.89
2022-08-22T17:18:26.040Z,27.47
2022-08-22T17:21:26.228Z,27.33
2022-08-22T17:24:06.845Z,27.41
2022-08-22T17:26:54.279Z,26.42
2022-08-22T17:29:30.922Z,26.41
2022-08-22T17:32:12.335Z,27.64
2022-08-22T17:35:06.793Z,27.02
2022-08-22T17:37:39.295Z,26.84
2022-08-22T17:40:24.055Z,28.13
2022-08-22T17:43:13.496Z,28.79
2022-08-22T17:46:02.246Z,29.10
2022-08-22T17:48:34.513Z,29.14
2022-08-22T17:51:15.534Z,30.22
2022-08-22T17:54:12.420Z,30.05
2022-08-22T17:56:58.922Z,31.12
2022-08-22T17:59:38.985Z,30.48
2022-08-22T18:02:41.108Z,30.92
2022-08-22T18:05:16.200Z,30.83
2022-08-22T18:07:52.074Z,31.77
2022-08-22T18:10:21.647Z,31.78
2022-08-22T18:12:57.344Z,31.92
2022-08-22T18:15:43.026Z,31.93
2022-08-22T18:18:24.866Z,31.77
2022-08-22T18:21:06.628Z,31.95
2022-08-22T18:23:40.080Z,32.70
2022-08-22T18:26:27.089Z,33.04
2022-08-22T18:29:32.201Z,33.33
2022-08-22T18:32:19.842Z,32.65
2022-08-22T18:34:54.809Z,33.55
2022-08-22T18:37:32.790Z,33.09
2022-08-22T18:40:06.295Z,33.66
2022-08-22T18:42:42.076Z,32.98
2022-08-22T18:45:44.304Z,32.52
2022-08-22T18:48:26.494Z,33.28
2022-08-22T18:51:14.225Z,32.95
2022-08-22T18:53:50.639Z,33.25
2022-08-22T18:56:35.193Z,33.61
2022-08-22T18:59:20.292Z,33.70
2022-08-22T19:02:20.829Z,34.01
2022-08-22T19:05:10.236Z,33.54
2022-08-22T19:07:56.341Z,33.65
2022-08-22T19:10:45.059Z,34.33
2022-08-22T19:13:29.629Z,34.72
2022-08-22T19:16:11.290Z,34.61
2022-08-22T19:18:52.855Z,34.02
2022-08-22T19:21:38.028Z,35.07
2022-08-22T19:24:27.552Z,35.44
2022-08-22T19:27:18.696Z,34.92
2022-08-22T19:29:45.130Z,34.90
2022-08-22T19:32:46.673Z,34.31
2022-08-22T19:35:21.041Z,34.65
2022-08-22T19:37:58.138Z,34.72
2022-08-22T19:40:46.416Z,35.14
2022-08-22T19:43:28.180Z,35.80
2022-08-22T19:45:55.886Z,34.81
2022-08-22T19:48:44.543Z,35.63
2022-08-22T19:51:28.426Z,35.45
2022-08-22T19:54:01.230Z,35.63
2022-08-22T19:56:58.830Z,36.35
2022-08-22T19:59:26.287Z,36.58
2022-08-22T20:01:56.150Z,36.89
2022-08-22T20:04:47.116Z,38.93
2022-08-22T20:07:25.565Z,37.40
2022-08-22T20:10:13.072Z,38.32
2022-08-22T20:13:05.426Z,38.12
2022-08-22T20:16:05.926Z,38.72
2022-08-22T20:19:09.470Z,37.42
2022-08-22T20:21:51.048Z,38.06
2022-08-22T20:24:45.531Z,39.01
2022-08-22T20:27:20.000Z,38.92
2022-08-22T20:29:51.899Z,39.07
2022-08-22T20:32:21.941Z,38.79
2022-08-22T20:34:53.679Z,39.33
2022-08-22T20:37:40.302Z,39.20
2022-08-22T20:40:53.476Z,39.82
2022-08-22T20:43:28.311Z,39.82
2022-08-22T20:46:32.222Z,39.27
2022-08-22T20:49:00.827Z,40.14
2022-08-22T20:51:31.529Z,39.82
2022-08-22T20:54:16.261Z,40.14
2022-08-22T20:57:03.397Z,39.88
2022-08-22T20:59:37.715Z,40.25
2022-08-22T21:02:13.337Z,41.48
2022-08-22T21:04:49.086Z,41.05
2022-08-22T21:07:29.935Z,40.60
2022-08-22T21:10:22.275Z,40.36
2022-08-22T21:13:08.964Z,40.86
2022-08-22T21:15:38.226Z,40.08
2022-08-22T21:18:05.305Z,40.54
2022-08-22T21:20:35.633Z,41.25
2022-08-22T21:23:15.957Z,41.26
2022-08-22T21:26:05.869Z,41.17
2022-08-22T21:28:57.216Z,41.52
2022-08-22T21:31:26.776Z,40.82
2022-08-22T21:33:55.494Z,41.28
2022-08-22T21:36:27.356Z,41.42
2022-08-22T21:38:57.823Z,41.80
2022-08-22T21:41:32.493Z,42.08
2022-08-22T21:44:18.676Z,42.16
2022-08-22T21:46:45.244Z,42.07
2022-08-22T21:49:22.134Z,42.69
2022-08-22T21:51:50.270Z,42.46
2022-08-22T21:54:26.010Z,43.55
2022-08-22T21:57:13.870Z,42.28
2022-08-22T21:59:51.669Z,42.05
2022-08-22T22:02:41.989Z,42.31
2022-08-22T22:05:18.152Z,42.83
2022-08-22T22:07:47.072Z,42.80
2022-08-22T22:10:16.786Z,42.87
2022-08-22T22:12:45.603Z,42.85
2022-08-22T22:15:16.149Z,42.01
2022-08-22T22:17:43.432Z,42.32
2022-08-22T22:20:11.255Z,42.98
2022-08-22T22:22:45.995Z,43.51
2022-08-22T22:25:41.226Z,43.33
2022-08-22T22:28:17.096Z,43.96
2022-08-22T22:30:45.262Z,43.38
2022-08-22T22:33:12.042Z,43.49
2022-08-22T22:35:40.275Z,43.45
2022-08-22T22:38:07.876Z,43.49
2022-08-22T22:40:35.289Z,43.51
2022-08-22T22:43:02.075Z,42.61
2022-08-22T22:45:28.639Z,43.24
2022-08-22T22:47:55.342Z,43.67
2022-08-22T22:50:21.943Z,42.80
2022-08-22T22:52:48.498Z,43.06
2022-08-22T22:55:24.129Z,43.66
2022-08-22T22:57:58.687Z,43.91
2022-08-22T23:00:32.358Z,43.52
2022-08-22T23:03:01.083Z,44.51
2022-08-22T23:05:29.792Z,43.55
2022-08-22T23:07:56.957Z,43.93
2022-08-22T23:10:23.550Z,43.53
2022-08-22T23:12:50.082Z,43.95
2022-08-22T23:15:16.767Z,44.08
2022-08-22T23:17:43.706Z,45.01
2022-08-22T23:20:10.611Z,45.23
2022-08-22T23:22:37.426Z,44.28
2022-08-22T23:25:05.001Z,44.36
2022-08-22T23:27:31.518Z,44.55
2022-08-22T23:29:58.075Z,44.76
2022-08-22T23:32:24.599Z,43.03
2022-08-22T23:34:51.276Z,45.14
2022-08-22T23:37:21.050Z,44.47
2022-08-22T23:39:48.252Z,44.20
2022-08-22T23:42:15.911Z,45.23
2022-08-22T23:44:45.030Z,45.32
2022-08-22T23:47:13.479Z,45.16
2022-08-22T23:49:41.768Z,44.52
2022-08-22T23:52:10.306Z,44.66
2022-08-22T23:54:36.879Z,45.11
2022-08-22T23:57:11.979Z,45.44
2022-08-22T23:59:44.598Z,44.62
